createdAt,value
2018-11-03T00:01:18.761Z,19.97
2018-11-03T00:03:53.106Z,18.10
2018-11-03T00:06:27.424Z,20.23
2018-11-03T00:09:01.761Z,17.60
2018-11-03T00:11:36.077Z,18.20
2018-11-03T00:14:11.154Z,18.63
2018-11-03T00:16:45.541Z,19.03
2018-11-03T00:19:19.838Z,19.70
2018-11-03T00:21:54.154Z,20.00
2018-11-03T00:24:28.438Z,20.43
2018-11-03T00:27:02.738Z,19.20
2018-11-03T00:29:37.050Z,19.07
2018-11-03T00:32:11.413Z,19.20
2018-11-03T00:34:45.713Z,19.30
2018-11-03T00:37:20.323Z,19.40
2018-11-03T00:39:54.597Z,18.90
2018-11-03T00:42:29.195Z,19.07
2018-11-03T00:45:03.533Z,20.30
2018-11-03T00:47:38.549Z,19.43
2018-11-03T00:50:13.989Z,19.17
2018-11-03T00:52:48.287Z,17.70
2018-11-03T00:55:22.577Z,19.10
2018-11-03T00:57:56.933Z,21.30
2018-11-03T01:00:31.261Z,20.40
2018-11-03T01:03:05.757Z,19.40
2018-11-03T01:05:40.089Z,19.93
2018-11-03T01:08:14.406Z,23.70
2018-11-03T01:10:48.764Z,21.43
2018-11-03T01:13:23.113Z,23.30
2018-11-03T01:15:57.433Z,23.80
2018-11-03T01:18:31.730Z,24.87
2018-11-03T01:21:06.179Z,23.00
2018-11-03T01:23:40.585Z,25.30
2018-11-03T01:26:14.818Z,21.17
2018-11-03T01:28:49.099Z,24.73
2018-11-03T01:31:23.397Z,23.30
2018-11-03T01:33:57.732Z,21.53
2018-11-03T01:36:32.054Z,21.00
2018-11-03T01:39:08.985Z,24.67
2018-11-03T01:41:43.280Z,23.10
2018-11-03T01:44:17.613Z,22.53
2018-11-03T01:46:51.914Z,20.37
2018-11-03T01:49:26.228Z,22.83
2018-11-03T01:52:00.540Z,20.83
2018-11-03T01:54:34.877Z,19.53
2018-11-03T01:57:09.200Z,20.73
2018-11-03T01:59:43.525Z,20.90
2018-11-03T02:02:17.837Z,20.40
2018-11-03T02:04:52.152Z,20.90
2018-11-03T02:07:26.609Z,22.87
2018-11-03T02:10:00.952Z,22.43
2018-11-03T02:12:35.242Z,23.83
2018-11-03T02:15:09.945Z,21.67
2018-11-03T02:17:44.372Z,20.90
2018-11-03T02:20:18.714Z,19.83
2018-11-03T02:22:53.051Z,22.53
2018-11-03T02:25:27.342Z,23.77
2018-11-03T02:28:01.650Z,22.03
2018-11-03T02:30:35.943Z,20.77
2018-11-03T02:33:10.246Z,22.77
2018-11-03T02:35:44.674Z,22.70
2018-11-03T02:38:18.993Z,20.83
2018-11-03T02:40:53.321Z,20.57
2018-11-03T02:43:27.647Z,24.50
2018-11-03T02:46:02.045Z,28.07
2018-11-03T02:48:36.394Z,25.63
2018-11-03T02:51:10.723Z,24.90
2018-11-03T02:53:45.015Z,23.50
2018-11-03T02:56:19.333Z,23.33
2018-11-03T02:58:53.714Z,22.47
2018-11-03T03:01:28.033Z,22.67
2018-11-03T03:04:02.422Z,24.27
2018-11-03T03:06:36.717Z,26.23
2018-11-03T03:09:11.017Z,21.23
2018-11-03T03:11:45.386Z,19.90
2018-11-03T03:14:19.681Z,20.47
2018-11-03T03:16:53.994Z,20.23
2018-11-03T03:19:28.352Z,21.77
2018-11-03T03:22:03.040Z,23.80
2018-11-03T03:24:37.338Z,21.20
2018-11-03T03:27:11.691Z,21.77
2018-11-03T03:29:45.989Z,26.53
2018-11-03T03:32:20.297Z,23.43
2018-11-03T03:34:54.617Z,23.77
2018-11-03T03:37:28.914Z,19.87
2018-11-03T03:40:03.304Z,20.67
2018-11-03T03:42:37.585Z,20.30
2018-11-03T03:45:11.861Z,21.40
2018-11-03T03:47:46.194Z,19.63
2018-11-03T03:50:20.496Z,20.90
2018-11-03T03:52:54.797Z,20.27
2018-11-03T03:55:29.143Z,21.67
2018-11-03T03:58:03.594Z,23.80
2018-11-03T04:00:37.967Z,28.70
2018-11-03T04:03:12.265Z,25.57
2018-11-03T04:05:46.600Z,22.50
2018-11-03T04:08:20.906Z,19.80
2018-11-03T04:10:55.217Z,20.97
2018-11-03T04:13:29.576Z,21.47
2018-11-03T04:16:03.898Z,19.17
2018-11-03T04:18:38.256Z,20.70
2018-11-03T04:21:16.762Z,26.47
2018-11-03T04:23:51.097Z,21.60
2018-11-03T04:26:26.220Z,21.03
2018-11-03T04:29:00.537Z,22.17
2018-11-03T04:31:34.871Z,20.40
2018-11-03T04:34:09.174Z,24.17
2018-11-03T04:36:43.485Z,23.77
2018-11-03T04:39:17.826Z,24.20
2018-11-03T04:41:52.130Z,25.17
2018-11-03T04:44:26.417Z,21.13
2018-11-03T04:47:00.721Z,23.77
2018-11-03T04:49:35.029Z,23.07
2018-11-03T04:52:09.340Z,21.77
2018-11-03T04:54:43.650Z,22.87
2018-11-03T04:57:17.974Z,23.73
2018-11-03T04:59:52.354Z,22.40
2018-11-03T05:02:26.691Z,20.37
2018-11-03T05:05:01.005Z,22.20
2018-11-03T05:07:35.406Z,28.30
2018-11-03T05:10:10.335Z,20.80
2018-11-03T05:12:44.622Z,20.20
2018-11-03T05:15:19.111Z,20.30
2018-11-03T05:17:53.437Z,19.17
2018-11-03T05:20:27.749Z,20.77
2018-11-03T05:23:02.063Z,19.07
2018-11-03T05:25:36.381Z,21.63
2018-11-03T05:28:10.680Z,20.27
2018-11-03T05:30:44.997Z,17.97
2018-11-03T05:33:19.294Z,20.83
2018-11-03T05:35:53.621Z,21.53
2018-11-03T05:38:27.968Z,18.10
2018-11-03T05:41:02.357Z,23.23
2018-11-03T05:43:36.659Z,20.73
2018-11-03T05:46:10.984Z,19.93
2018-11-03T05:48:45.277Z,19.33
2018-11-03T05:51:19.585Z,19.03
2018-11-03T05:53:53.933Z,21.83
2018-11-03T05:56:28.275Z,18.03
2018-11-03T05:59:02.660Z,17.83
2018-11-03T06:01:36.926Z,17.53
2018-11-03T06:04:11.273Z,18.70
2018-11-03T06:06:45.623Z,20.20
2018-11-03T06:09:19.937Z,17.77
2018-11-03T06:11:54.598Z,17.87
2018-11-03T06:14:28.912Z,17.07
2018-11-03T06:17:03.526Z,17.33
2018-11-03T06:19:37.901Z,21.07
2018-11-03T06:22:12.287Z,19.97
2018-11-03T06:24:46.596Z,18.13
2018-11-03T06:27:20.910Z,18.47
2018-11-03T06:29:55.213Z,18.40
2018-11-03T06:32:29.518Z,21.57
2018-11-03T06:35:04.004Z,21.10
2018-11-03T06:37:38.286Z,21.77
2018-11-03T06:40:12.593Z,20.87
2018-11-03T06:42:46.926Z,19.77
2018-11-03T06:45:21.225Z,18.57
2018-11-03T06:47:55.555Z,20.93
2018-11-03T06:50:29.851Z,22.87
2018-11-03T06:53:04.175Z,17.97
2018-11-03T06:55:38.664Z,19.07
2018-11-03T06:58:12.978Z,17.53
2018-11-03T07:00:47.366Z,17.47
2018-11-03T07:03:21.681Z,17.97
2018-11-03T07:05:56.008Z,17.73
2018-11-03T07:08:30.325Z,22.63
2018-11-03T07:11:04.657Z,24.77
2018-11-03T07:13:38.980Z,20.40
2018-11-03T07:16:13.274Z,25.30
2018-11-03T07:18:47.617Z,25.53
2018-11-03T07:21:22.018Z,24.73
2018-11-03T07:23:56.298Z,20.83
2018-11-03T07:26:30.626Z,24.77
2018-11-03T07:29:05.025Z,24.13
2018-11-03T07:31:39.366Z,23.00
2018-11-03T07:34:13.738Z,22.27
2018-11-03T07:36:48.042Z,21.83
2018-11-03T07:39:22.353Z,23.27
2018-11-03T07:41:56.658Z,23.37
2018-11-03T07:44:30.989Z,26.30
2018-11-03T07:47:05.311Z,23.23
2018-11-03T07:49:39.934Z,18.80
2018-11-03T07:52:14.307Z,18.43
2018-11-03T07:54:48.828Z,19.57
2018-11-03T07:57:23.125Z,20.00
2018-11-03T07:59:57.578Z,21.60
2018-11-03T08:02:32.034Z,22.37
2018-11-03T08:05:07.213Z,21.33
2018-11-03T08:07:41.680Z,21.33
2018-11-03T08:10:16.145Z,20.83
2018-11-03T08:12:50.593Z,23.07
2018-11-03T08:15:25.007Z,23.20
2018-11-03T08:17:59.386Z,23.87
2018-11-03T08:20:33.770Z,24.03
2018-11-03T08:23:08.361Z,23.43
2018-11-03T08:25:42.674Z,22.93
2018-11-03T08:28:17.162Z,25.17
2018-11-03T08:30:51.613Z,25.23
2018-11-03T08:33:26.117Z,27.10
2018-11-03T08:36:00.674Z,32.33
2018-11-03T08:38:35.189Z,25.03
2018-11-03T08:41:11.796Z,28.47
2018-11-03T08:43:46.654Z,24.10
2018-11-03T08:46:21.149Z,26.47
2018-11-03T08:48:55.736Z,24.00
2018-11-03T08:51:30.127Z,21.27
2018-11-03T08:54:04.606Z,23.23
2018-11-03T08:56:39.069Z,21.73
2018-11-03T08:59:13.537Z,20.70
2018-11-03T09:01:47.938Z,24.90
2018-11-03T09:04:22.337Z,20.63
2018-11-03T09:06:56.749Z,21.10
2018-11-03T09:09:31.109Z,22.57
2018-11-03T09:12:08.307Z,21.97
2018-11-03T09:14:42.757Z,22.53
2018-11-03T09:17:17.186Z,21.90
2018-11-03T09:19:51.626Z,19.63
2018-11-03T09:22:26.101Z,18.63
2018-11-03T09:25:00.439Z,17.97
2018-11-03T09:27:35.437Z,18.97
2018-11-03T09:30:12.726Z,18.93
2018-11-03T09:32:47.212Z,18.63
2018-11-03T09:35:21.601Z,21.17
2018-11-03T09:37:56.365Z,17.90
2018-11-03T09:40:30.882Z,17.23
2018-11-03T09:43:05.569Z,20.47
2018-11-03T09:45:40.114Z,19.47
2018-11-03T09:48:14.558Z,19.50
2018-11-03T09:50:48.956Z,19.43
2018-11-03T09:53:23.282Z,18.83
2018-11-03T09:55:57.573Z,23.17
2018-11-03T09:58:31.918Z,19.30
2018-11-03T10:01:06.290Z,20.30
2018-11-03T10:03:40.635Z,21.10
2018-11-03T10:06:14.973Z,22.80
2018-11-03T10:08:49.236Z,20.33
2018-11-03T10:11:23.557Z,22.60
2018-11-03T10:13:57.869Z,23.33
2018-11-03T10:16:32.146Z,22.73
2018-11-03T10:19:06.484Z,20.43
2018-11-03T10:21:43.401Z,19.83
2018-11-03T10:24:17.879Z,19.33
2018-11-03T10:26:52.158Z,20.97
2018-11-03T10:29:26.445Z,22.20
2018-11-03T10:32:00.762Z,20.10
2018-11-03T10:34:35.102Z,20.93
2018-11-03T10:37:09.458Z,21.87
2018-11-03T10:39:43.780Z,20.80
2018-11-03T10:42:18.129Z,17.47
2018-11-03T10:44:52.388Z,19.47
2018-11-03T10:47:26.693Z,17.90
2018-11-03T10:50:01.014Z,16.00
2018-11-03T10:52:35.298Z,18.67
2018-11-03T10:55:10.669Z,17.67
2018-11-03T10:57:45.054Z,17.43
2018-11-03T11:00:25.541Z,19.33
2018-11-03T11:03:05.042Z,18.87
2018-11-03T11:05:43.505Z,16.10
2018-11-03T11:08:23.071Z,16.57
2018-11-03T11:11:02.533Z,16.47
2018-11-03T11:13:37.917Z,16.77
2018-11-03T11:16:12.248Z,16.80
2018-11-03T11:18:46.561Z,15.80
2018-11-03T11:21:20.889Z,16.53
2018-11-03T11:23:55.197Z,18.37
2018-11-03T11:26:29.485Z,19.73
2018-11-03T11:29:03.821Z,122.43
2018-11-03T11:31:38.235Z,37.60
2018-11-03T11:34:12.425Z,24.30
2018-11-03T11:36:46.745Z,16.80
2018-11-03T11:39:21.045Z,16.43
2018-11-03T11:41:55.398Z,15.80
2018-11-03T11:44:29.689Z,18.93
2018-11-03T11:47:04.006Z,18.10
2018-11-03T11:49:38.368Z,16.57
2018-11-03T11:52:12.632Z,18.13
2018-11-03T11:54:46.946Z,15.73
2018-11-03T11:57:21.225Z,15.40
2018-11-03T11:59:55.550Z,16.60
2018-11-03T12:02:29.901Z,15.77
2018-11-03T12:05:04.485Z,15.70
2018-11-03T12:07:38.835Z,16.60
2018-11-03T12:10:13.276Z,14.53
2018-11-03T12:12:47.743Z,16.43
2018-11-03T12:15:22.089Z,13.80
2018-11-03T12:17:56.410Z,14.00
2018-11-03T12:20:30.822Z,14.23
2018-11-03T12:23:05.181Z,13.70
2018-11-03T12:25:39.655Z,13.77
2018-11-03T12:28:13.889Z,13.43
2018-11-03T12:30:48.201Z,13.80
2018-11-03T12:33:22.525Z,13.70
2018-11-03T12:35:56.843Z,14.83
2018-11-03T12:38:31.153Z,14.07
2018-11-03T12:41:05.530Z,13.60
2018-11-03T12:43:39.805Z,15.27
2018-11-03T12:46:14.303Z,14.67
2018-11-03T12:48:48.715Z,14.70
2018-11-03T12:51:23.073Z,13.30
2018-11-03T12:53:57.633Z,13.30
2018-11-03T12:56:32.003Z,13.50
2018-11-03T12:59:06.624Z,12.60
2018-11-03T13:01:40.911Z,12.87
2018-11-03T13:04:15.503Z,12.70
2018-11-03T13:06:50.022Z,13.40
2018-11-03T13:09:25.046Z,13.07
2018-11-03T13:11:59.703Z,14.17
2018-11-03T13:14:34.134Z,13.17
2018-11-03T13:17:08.535Z,11.93
2018-11-03T13:19:43.062Z,11.20
2018-11-03T13:22:17.462Z,10.50
2018-11-03T13:24:51.897Z,9.67
2018-11-03T13:27:26.433Z,9.80
2018-11-03T13:30:00.742Z,9.93
2018-11-03T13:32:35.172Z,10.30
2018-11-03T13:35:10.819Z,9.80
2018-11-03T13:37:45.185Z,9.67
2018-11-03T13:40:19.521Z,10.07
2018-11-03T13:42:53.874Z,10.13
2018-11-03T13:45:28.278Z,9.77
2018-11-03T13:48:02.614Z,11.47
2018-11-03T13:50:37.067Z,10.13
2018-11-03T13:53:11.671Z,9.80
2018-11-03T13:55:46.244Z,7.67
2018-11-03T13:58:20.633Z,8.03
2018-11-03T14:00:55.157Z,8.30
2018-11-03T14:03:29.546Z,9.00
2018-11-03T14:06:04.070Z,8.90
2018-11-03T14:08:38.498Z,9.43
2018-11-03T14:11:12.923Z,7.80
2018-11-03T14:13:47.385Z,7.97
2018-11-03T14:16:22.269Z,7.83
2018-11-03T14:18:57.262Z,7.57
2018-11-03T14:21:31.750Z,9.17
2018-11-03T14:24:06.405Z,9.40
2018-11-03T14:26:40.793Z,9.83
2018-11-03T14:29:15.181Z,10.87
2018-11-03T14:31:50.190Z,9.23
2018-11-03T14:34:24.550Z,9.20
2018-11-03T14:36:58.877Z,9.17
2018-11-03T14:39:33.198Z,7.47
2018-11-03T14:42:07.511Z,7.43
2018-11-03T14:44:41.837Z,10.90
2018-11-03T14:47:16.189Z,12.90
2018-11-03T14:49:50.507Z,8.53
2018-11-03T14:52:24.919Z,7.37
2018-11-03T14:54:59.200Z,8.30
2018-11-03T14:57:33.546Z,7.47
2018-11-03T15:00:11.679Z,7.83
2018-11-03T15:02:46.054Z,8.70
2018-11-03T15:05:20.458Z,7.70
2018-11-03T15:07:54.749Z,10.13
2018-11-03T15:10:29.053Z,8.93
2018-11-03T15:13:03.365Z,9.17
2018-11-03T15:15:37.685Z,8.73
2018-11-03T15:18:12.014Z,8.90
2018-11-03T15:20:46.322Z,8.23
2018-11-03T15:23:20.629Z,7.77
2018-11-03T15:25:54.997Z,7.33
2018-11-03T15:28:29.330Z,6.33
2018-11-03T15:31:03.610Z,6.13
2018-11-03T15:33:37.925Z,6.00
2018-11-03T15:36:12.240Z,5.77
2018-11-03T15:38:46.566Z,5.17
2018-11-03T15:41:20.935Z,5.60
2018-11-03T15:43:55.191Z,6.30
2018-11-03T15:46:29.479Z,6.13
2018-11-03T15:49:03.801Z,6.37
2018-11-03T15:51:38.121Z,6.57
2018-11-03T15:54:12.441Z,5.70
2018-11-03T15:56:46.729Z,5.80
2018-11-03T15:59:21.037Z,6.73
2018-11-03T16:01:55.311Z,5.57
2018-11-03T16:04:29.785Z,5.53
2018-11-03T16:07:04.181Z,5.73
2018-11-03T16:09:38.722Z,6.13
2018-11-03T16:12:13.065Z,6.77
2018-11-03T16:14:47.339Z,6.73
2018-11-03T16:17:21.658Z,7.40
2018-11-03T16:19:55.940Z,7.37
2018-11-03T16:22:30.364Z,6.43
2018-11-03T16:25:04.625Z,7.03
2018-11-03T16:27:39.594Z,7.20
2018-11-03T16:30:16.833Z,7.07
2018-11-03T16:32:51.129Z,7.73
2018-11-03T16:35:25.531Z,7.33
2018-11-03T16:37:59.757Z,7.13
2018-11-03T16:40:34.038Z,7.40
2018-11-03T16:43:08.330Z,8.83
2018-11-03T16:45:42.709Z,7.93
2018-11-03T16:48:16.975Z,7.23
2018-11-03T16:50:51.276Z,7.53
2018-11-03T16:53:25.554Z,7.60
2018-11-03T16:55:59.840Z,8.53
2018-11-03T16:58:34.225Z,9.70
2018-11-03T17:01:08.636Z,8.67
2018-11-03T17:03:42.950Z,7.40
2018-11-03T17:06:17.561Z,6.87
2018-11-03T17:08:51.878Z,8.43
2018-11-03T17:11:26.177Z,7.83
2018-11-03T17:14:00.475Z,8.10
2018-11-03T17:16:34.774Z,7.53
2018-11-03T17:19:09.077Z,9.30
2018-11-03T17:21:43.382Z,7.40
2018-11-03T17:24:17.696Z,7.77
2018-11-03T17:26:51.985Z,7.53
2018-11-03T17:29:26.277Z,7.20
2018-11-03T17:32:00.567Z,6.60
2018-11-03T17:34:34.905Z,6.63
2018-11-03T17:37:09.258Z,7.33
2018-11-03T17:39:43.541Z,6.63
2018-11-03T17:42:17.838Z,7.43
2018-11-03T17:44:52.145Z,5.93
2018-11-03T17:47:26.459Z,7.63
2018-11-03T17:50:00.790Z,5.67
2018-11-03T17:52:36.234Z,5.93
2018-11-03T17:55:10.801Z,5.90
2018-11-03T17:57:45.066Z,7.03
2018-11-03T18:00:19.506Z,6.50
2018-11-03T18:02:53.768Z,7.10
2018-11-03T18:05:28.045Z,6.53
2018-11-03T18:08:02.442Z,8.63
2018-11-03T18:10:36.763Z,8.53
2018-11-03T18:13:11.135Z,6.27
2018-11-03T18:15:45.365Z,5.90
2018-11-03T18:18:19.636Z,7.20
2018-11-03T18:20:53.938Z,5.33
2018-11-03T18:23:28.238Z,5.97
2018-11-03T18:26:02.546Z,5.87
2018-11-03T18:28:36.866Z,6.37
2018-11-03T18:31:11.151Z,6.13
2018-11-03T18:33:45.466Z,4.83
2018-11-03T18:36:19.983Z,5.87
2018-11-03T18:38:54.315Z,6.23
2018-11-03T18:41:28.870Z,5.20
2018-11-03T18:44:03.184Z,7.30
2018-11-03T18:46:37.734Z,6.13
2018-11-03T18:49:11.979Z,6.53
2018-11-03T18:51:46.380Z,7.40
2018-11-03T18:54:21.117Z,6.50
2018-11-03T18:56:55.431Z,5.10
2018-11-03T18:59:29.878Z,5.33
2018-11-03T19:02:05.418Z,5.47
2018-11-03T19:04:39.896Z,4.87
2018-11-03T19:07:14.238Z,4.50
2018-11-03T19:09:48.668Z,5.17
2018-11-03T19:12:23.013Z,5.77
2018-11-03T19:14:57.310Z,6.43
2018-11-03T19:17:31.702Z,7.63
2018-11-03T19:20:07.805Z,5.47
2018-11-03T19:22:42.469Z,4.80
2018-11-03T19:25:16.813Z,4.73
2018-11-03T19:27:51.573Z,5.73
2018-11-03T19:30:26.231Z,3.93
2018-11-03T19:33:00.558Z,3.87
2018-11-03T19:35:34.925Z,3.40
2018-11-03T19:38:09.363Z,4.20
2018-11-03T19:40:43.923Z,4.10
2018-11-03T19:43:18.257Z,3.17
2018-11-03T19:45:52.618Z,3.70
2018-11-03T19:48:26.950Z,2.93
2018-11-03T19:51:01.678Z,4.43
2018-11-03T19:53:36.052Z,2.60
2018-11-03T19:56:10.429Z,2.70
2018-11-03T19:58:44.734Z,2.77
2018-11-03T20:01:19.248Z,2.73
2018-11-03T20:03:53.905Z,3.47
2018-11-03T20:06:28.522Z,2.80
2018-11-03T20:09:03.048Z,2.87
2018-11-03T20:11:37.430Z,2.70
2018-11-03T20:14:11.898Z,2.43
2018-11-03T20:16:46.205Z,2.57
2018-11-03T20:19:20.689Z,2.43
2018-11-03T20:21:55.001Z,2.33
2018-11-03T20:24:29.442Z,2.57
2018-11-03T20:27:03.750Z,2.63
2018-11-03T20:29:38.223Z,2.43
2018-11-03T20:32:12.667Z,2.43
2018-11-03T20:34:47.196Z,2.37
2018-11-03T20:37:21.782Z,2.70
2018-11-03T20:39:56.121Z,2.33
2018-11-03T20:42:30.640Z,3.60
2018-11-03T20:45:05.601Z,9.87
2018-11-03T20:47:40.125Z,5.73
2018-11-03T20:50:15.042Z,30.73
2018-11-03T20:52:49.401Z,14.73
2018-11-03T20:55:23.831Z,5.30
2018-11-03T20:57:58.109Z,11.13
2018-11-03T21:00:32.525Z,20.50
2018-11-03T21:03:06.901Z,33.93
2018-11-03T21:05:41.322Z,15.57
2018-11-03T21:08:16.044Z,9.97
2018-11-03T21:10:50.365Z,6.63
2018-11-03T21:13:24.809Z,4.50
2018-11-03T21:15:59.153Z,4.57
2018-11-03T21:18:33.735Z,4.10
2018-11-03T21:21:08.150Z,3.33
2018-11-03T21:23:42.585Z,2.93
2018-11-03T21:26:17.019Z,4.30
2018-11-03T21:28:51.402Z,3.30
2018-11-03T21:31:25.799Z,3.13
2018-11-03T21:34:00.244Z,3.10
2018-11-03T21:36:34.551Z,3.30
2018-11-03T21:39:10.382Z,3.00
2018-11-03T21:41:44.734Z,3.00
2018-11-03T21:44:19.259Z,3.07
2018-11-03T21:46:54.753Z,2.67
2018-11-03T21:49:28.929Z,2.90
2018-11-03T21:52:03.404Z,3.17
2018-11-03T21:54:38.094Z,3.37
2018-11-03T21:57:12.461Z,2.67
2018-11-03T21:59:47.209Z,3.00
2018-11-03T22:02:21.638Z,3.07
2018-11-03T22:04:56.113Z,4.00
2018-11-03T22:07:30.544Z,2.80
2018-11-03T22:10:05.391Z,3.43
2018-11-03T22:12:40.541Z,3.60
2018-11-03T22:15:14.942Z,3.17
2018-11-03T22:17:49.371Z,3.50
2018-11-03T22:20:23.993Z,4.73
2018-11-03T22:22:58.551Z,3.77
2018-11-03T22:25:33.133Z,2.87
2018-11-03T22:28:07.621Z,3.37
2018-11-03T22:30:41.836Z,3.20
2018-11-03T22:33:16.181Z,3.53
2018-11-03T22:35:50.465Z,3.47
2018-11-03T22:38:24.815Z,4.50
2018-11-03T22:40:59.097Z,3.67
2018-11-03T22:43:33.458Z,3.67
2018-11-03T22:46:07.795Z,3.40
2018-11-03T22:48:42.259Z,4.20
2018-11-03T22:51:16.611Z,3.53
2018-11-03T22:53:50.878Z,5.43
2018-11-03T22:56:25.185Z,3.80
2018-11-03T22:58:59.515Z,5.33
2018-11-03T23:01:33.782Z,3.77
2018-11-03T23:04:08.075Z,3.67
2018-11-03T23:06:42.345Z,5.10
2018-11-03T23:09:16.670Z,3.97
2018-11-03T23:11:50.965Z,3.70
2018-11-03T23:14:25.293Z,3.23
2018-11-03T23:16:59.600Z,4.90
2018-11-03T23:19:33.891Z,3.50
2018-11-03T23:22:08.412Z,3.93
2018-11-03T23:24:42.699Z,3.63
2018-11-03T23:27:17.031Z,4.90
2018-11-03T23:29:51.419Z,4.50
2018-11-03T23:32:25.623Z,4.13
2018-11-03T23:34:59.933Z,3.97
2018-11-03T23:37:34.268Z,5.47
2018-11-03T23:40:09.472Z,5.67
2018-11-03T23:42:43.833Z,4.83
2018-11-03T23:45:18.143Z,7.30
2018-11-03T23:47:52.461Z,6.83
2018-11-03T23:50:26.786Z,5.97
2018-11-03T23:53:01.066Z,4.10
2018-11-03T23:55:35.417Z,4.10
2018-11-03T23:58:09.733Z,4.13
